Time;durP1;ratioP1;P1;durP2;ratioP2;P2;SDS_P1;SDS_P2;PMS_P1;PMS_P2;Temp;Humidity;BMP_temperature;BMP_pressure;BME280_temperature;BME280_humidity;BME280_pressure;Samples;Min_cycle;Max_cycle;Signal;HPM_P1;HPM_P2
2022/03/18 00:00:24;;;;;;;14.65;7.95;;;6.90;99.90;;;;;;5037378;28;20412;-88
2022/03/18 00:02:53;;;;;;;10.35;7.32;;;6.90;99.90;;;;;;5054836;28;20053;-88
2022/03/18 00:05:24;;;;;;;13.50;7.75;;;6.80;99.90;;;;;;5037144;28;20163;-88
2022/03/18 00:07:52;;;;;;;13.20;7.80;;;6.70;99.90;;;;;;5054512;28;20183;-88
2022/03/18 00:10:19;;;;;;;12.43;7.28;;;6.60;99.90;;;;;;5035113;28;20103;-88
2022/03/18 00:12:47;;;;;;;13.57;7.72;;;6.60;99.90;;;;;;5037329;28;20556;-88
2022/03/18 00:15:14;;;;;;;12.10;7.38;;;6.60;99.90;;;;;;5037186;28;20045;-88
2022/03/18 00:17:42;;;;;;;13.48;7.57;;;6.60;99.90;;;;;;5054503;28;20477;-88
2022/03/18 00:20:12;;;;;;;14.95;7.70;;;6.60;99.90;;;;;;5054187;28;20548;-88
2022/03/18 00:22:39;;;;;;;12.23;7.00;;;6.60;99.90;;;;;;5036805;28;20523;-88
2022/03/18 00:25:08;;;;;;;11.80;7.10;;;6.60;99.90;;;;;;5036341;28;20048;-88
2022/03/18 00:27:36;;;;;;;11.95;6.80;;;6.60;99.90;;;;;;5054235;28;20059;-88
2022/03/18 00:30:04;;;;;;;9.50;6.45;;;6.40;99.90;;;;;;5036643;28;20147;-87
2022/03/18 00:32:32;;;;;;;21.58;7.25;;;6.40;99.90;;;;;;5036956;28;20116;-88
2022/03/18 00:34:59;;;;;;;14.77;7.40;;;6.40;99.90;;;;;;5049711;28;20060;-88
2022/03/18 00:37:26;;;;;;;15.55;6.72;;;6.40;99.90;;;;;;5037594;28;20041;-88
2022/03/18 00:39:53;;;;;;;10.70;6.68;;;6.40;99.90;;;;;;5036727;28;20045;-88
2022/03/18 00:42:21;;;;;;;15.65;6.03;;;6.30;99.90;;;;;;5036182;28;20045;-88
2022/03/18 00:44:48;;;;;;;9.90;5.50;;;6.30;99.90;;;;;;5036627;28;20059;-88
2022/03/18 00:52:45;;;;;;;11.85;5.03;;;6.30;99.90;;;;;;5053622;28;20055;-88
2022/03/18 00:55:12;;;;;;;11.77;4.05;;;6.30;99.90;;;;;;5053614;28;20052;-86
2022/03/18 00:57:39;;;;;;;16.95;4.90;;;6.30;99.90;;;;;;5035770;28;20053;-88
2022/03/18 01:00:07;;;;;;;11.98;4.53;;;6.20;99.90;;;;;;5036070;28;20045;-88
2022/03/18 01:02:34;;;;;;;11.95;4.78;;;6.20;99.90;;;;;;5036004;28;20071;-88
2022/03/18 01:05:01;;;;;;;13.95;4.65;;;6.20;99.90;;;;;;5036772;28;20045;-87
2022/03/18 01:07:30;;;;;;;14.05;4.78;;;6.20;99.90;;;;;;5035946;28;20049;-88
2022/03/18 01:09:58;;;;;;;13.10;4.05;;;6.10;99.90;;;;;;5035957;28;20067;-86
2022/03/18 01:12:25;;;;;;;13.48;3.80;;;6.10;99.90;;;;;;5052939;28;20045;-88
2022/03/18 01:14:53;;;;;;;13.73;3.78;;;6.10;99.90;;;;;;5036171;28;20580;-88
2022/03/18 01:17:20;;;;;;;15.05;4.05;;;6.00;99.90;;;;;;5035796;28;20416;-88
2022/03/18 01:19:46;;;;;;;10.63;3.80;;;6.00;99.90;;;;;;5053214;28;20055;-88
2022/03/18 01:22:13;;;;;;;12.30;4.07;;;6.00;99.90;;;;;;5035341;28;20506;-87
2022/03/18 01:24:40;;;;;;;21.17;4.13;;;6.00;99.90;;;;;;5052904;28;20079;-88
2022/03/18 01:27:07;;;;;;;11.73;4.03;;;5.90;99.90;;;;;;5052965;28;20052;-88
2022/03/18 01:29:34;;;;;;;13.77;4.50;;;6.00;99.90;;;;;;5035573;28;20048;-88
2022/03/18 01:32:01;;;;;;;18.83;4.95;;;6.00;99.90;;;;;;5053124;28;20423;-88
2022/03/18 01:34:28;;;;;;;12.63;4.68;;;6.00;99.90;;;;;;5052751;28;20139;-88
2022/03/18 01:36:55;;;;;;;13.23;4.32;;;5.90;99.90;;;;;;5052914;28;20151;-88
2022/03/18 01:39:22;;;;;;;17.33;4.22;;;5.90;99.90;;;;;;5052914;28;20049;-88
2022/03/18 01:41:51;;;;;;;7.38;3.42;;;5.90;99.90;;;;;;5035467;28;20049;-88
2022/03/18 01:44:18;;;;;;;13.05;4.43;;;5.90;99.90;;;;;;5052907;28;20127;-89
2022/03/18 01:46:45;;;;;;;16.75;4.40;;;5.90;99.90;;;;;;5035716;28;20055;-88
2022/03/18 01:49:13;;;;;;;17.05;4.20;;;5.90;99.90;;;;;;5047741;28;20052;-86
2022/03/18 01:51:40;;;;;;;14.30;5.00;;;5.90;99.90;;;;;;5054154;28;20080;-88
2022/03/18 01:56:55;;;;;;;16.20;4.60;;;5.80;99.90;;;;;;5052629;28;20055;-85
2022/03/18 01:59:22;;;;;;;18.52;4.70;;;5.80;99.90;;;;;;5035325;28;20133;-88
2022/03/18 02:01:49;;;;;;;15.02;4.85;;;5.80;99.90;;;;;;5052690;28;20063;-89
2022/03/18 02:04:17;;;;;;;15.85;4.50;;;5.80;99.90;;;;;;5035334;28;20049;-86
2022/03/18 02:06:44;;;;;;;19.05;4.78;;;5.90;99.90;;;;;;5034880;28;20059;-88
2022/03/18 02:09:11;;;;;;;16.65;4.82;;;5.90;99.90;;;;;;5035682;28;20049;-88
2022/03/18 02:11:38;;;;;;;18.20;4.80;;;5.80;99.90;;;;;;5035035;28;20049;-88
2022/03/18 02:14:06;;;;;;;26.23;5.00;;;5.80;99.90;;;;;;5055191;28;20056;-89
2022/03/18 02:16:32;;;;;;;15.13;4.60;;;5.80;99.90;;;;;;5039062;28;20059;-88
2022/03/18 02:18:59;;;;;;;15.32;5.55;;;5.80;99.90;;;;;;5038943;28;20051;-86
2022/03/18 02:21:28;;;;;;;12.57;5.15;;;5.80;99.90;;;;;;5056539;28;20049;-86
2022/03/18 02:23:56;;;;;;;15.55;5.10;;;5.80;99.90;;;;;;5039011;28;20109;-86
2022/03/18 02:26:23;;;;;;;16.50;4.70;;;5.70;99.90;;;;;;5038397;28;20053;-86
2022/03/18 02:28:51;;;;;;;15.68;5.60;;;5.70;99.90;;;;;;5056377;28;20060;-88
2022/03/18 02:31:19;;;;;;;24.60;5.93;;;5.70;99.90;;;;;;5038986;28;20132;-88
2022/03/18 02:33:46;;;;;;;17.85;4.97;;;5.70;99.90;;;;;;5038666;28;20080;-89
2022/03/18 02:36:13;;;;;;;16.77;5.50;;;5.70;99.90;;;;;;5038780;28;20481;-86
2022/03/18 02:38:41;;;;;;;22.17;5.75;;;5.60;99.90;;;;;;5038733;28;20049;-86
2022/03/18 02:41:09;;;;;;;22.17;6.15;;;5.60;99.90;;;;;;5038694;28;20084;-86
2022/03/18 02:43:36;;;;;;;19.55;5.20;;;5.50;99.90;;;;;;5038675;28;20463;-86
2022/03/18 02:46:08;;;;;;;26.33;5.77;;;5.50;99.90;;;;;;5039493;28;20051;-86
2022/03/18 02:48:35;;;;;;;14.75;5.00;;;5.50;99.90;;;;;;5038535;28;20076;-89
2022/03/18 02:51:02;;;;;;;17.65;5.97;;;5.40;99.90;;;;;;5038747;28;20094;-89
2022/03/18 02:53:29;;;;;;;25.15;6.25;;;5.50;99.90;;;;;;5038690;28;20049;-89
2022/03/18 02:55:56;;;;;;;22.67;6.25;;;5.40;99.90;;;;;;5038561;28;20053;-89
2022/03/18 02:58:23;;;;;;;27.08;7.13;;;5.30;99.90;;;;;;5038365;28;20045;-88
2022/03/18 03:00:50;;;;;;;33.10;7.53;;;5.30;99.90;;;;;;5055312;28;20041;-85
2022/03/18 03:03:18;;;;;;;19.33;6.00;;;5.20;99.90;;;;;;5057751;28;20055;-86
2022/03/18 03:08:31;;;;;;;24.95;6.80;;;5.20;99.90;;;;;;5055869;28;20408;-86
2022/03/18 03:10:58;;;;;;;16.48;7.43;;;5.20;99.90;;;;;;5038010;28;20420;-89
2022/03/18 03:13:25;;;;;;;26.40;8.13;;;5.20;99.90;;;;;;5037760;28;20128;-89
2022/03/18 03:15:52;;;;;;;23.02;6.38;;;5.20;99.90;;;;;;5038162;28;20049;-89
2022/03/18 03:18:20;;;;;;;19.83;6.50;;;5.30;99.90;;;;;;5055593;28;20475;-87
2022/03/18 03:20:48;;;;;;;20.15;6.57;;;5.30;99.90;;;;;;5037835;28;20044;-89
2022/03/18 03:23:15;;;;;;;20.08;7.35;;;5.30;99.90;;;;;;5038195;28;20136;-89
2022/03/18 03:25:43;;;;;;;30.38;7.35;;;5.30;99.90;;;;;;5036211;28;20133;-88
2022/03/18 03:28:10;;;;;;;17.63;6.30;;;5.40;99.90;;;;;;5037637;28;20140;-88
2022/03/18 03:30:37;;;;;;;30.52;7.28;;;5.30;99.90;;;;;;5037878;28;20053;-88
2022/03/18 03:33:04;;;;;;;21.25;7.10;;;5.40;99.90;;;;;;5037733;28;20045;-88
2022/03/18 03:35:31;;;;;;;21.25;7.18;;;5.40;99.90;;;;;;5037962;28;20208;-88
2022/03/18 03:37:58;;;;;;;16.02;6.28;;;5.40;99.90;;;;;;5037584;28;20052;-89
2022/03/18 03:40:25;;;;;;;19.02;6.68;;;5.50;99.90;;;;;;5037467;28;20045;-87
2022/03/18 03:42:53;;;;;;;14.35;6.20;;;5.50;99.90;;;;;;5055154;28;20075;-89
2022/03/18 03:45:19;;;;;;;17.98;6.57;;;5.50;99.90;;;;;;5037631;28;20102;-86
2022/03/18 03:47:47;;;;;;;15.05;5.85;;;5.50;99.90;;;;;;5037574;28;20081;-88
2022/03/18 03:50:14;;;;;;;28.55;6.45;;;5.50;99.90;;;;;;5055002;28;20087;-88
2022/03/18 03:52:41;;;;;;;19.38;5.93;;;5.50;99.90;;;;;;5037354;28;20080;-86
2022/03/18 03:55:09;;;;;;;15.43;5.75;;;5.50;99.90;;;;;;5037400;28;20053;-87
2022/03/18 03:57:38;;;;;;;30.77;6.32;;;5.40;99.90;;;;;;5037158;28;20052;-88
2022/03/18 04:00:10;;;;;;;20.08;5.82;;;5.50;99.90;;;;;;5054649;28;20378;-89
2022/03/18 04:02:37;;;;;;;21.58;5.95;;;5.40;99.90;;;;;;5037201;28;20049;-87
2022/03/18 04:05:09;;;;;;;20.65;5.53;;;5.50;99.90;;;;;;5037088;28;20539;-89
2022/03/18 04:07:45;;;;;;;25.02;5.38;;;5.50;99.90;;;;;;5036486;28;20069;-89
2022/03/18 04:10:13;;;;;;;17.95;5.50;;;5.50;99.90;;;;;;5054354;28;20132;-89
2022/03/18 04:12:42;;;;;;;16.67;5.35;;;5.50;99.90;;;;;;5054539;28;20382;-89
2022/03/18 04:15:10;;;;;;;22.00;5.93;;;5.50;99.90;;;;;;5037412;28;20088;-88
2022/03/18 04:17:48;;;;;;;20.63;6.18;;;5.50;99.90;;;;;;5067877;28;20037;-89
2022/03/18 04:20:21;;;;;;;16.35;5.47;;;5.50;99.90;;;;;;5037271;28;20469;-86
2022/03/18 04:22:49;;;;;;;16.70;5.53;;;5.60;99.90;;;;;;5036563;28;20136;-88
2022/03/18 04:25:17;;;;;;;16.67;5.75;;;5.50;99.90;;;;;;5036558;28;20442;-86
2022/03/18 04:27:44;;;;;;;25.73;6.28;;;5.50;99.90;;;;;;5054323;28;20171;-86
2022/03/18 04:30:12;;;;;;;23.67;6.22;;;5.50;99.90;;;;;;5054049;28;20068;-88
2022/03/18 04:32:40;;;;;;;23.42;6.63;;;5.50;99.90;;;;;;5036629;28;20131;-87
2022/03/18 04:35:09;;;;;;;20.90;6.95;;;5.50;99.90;;;;;;5054414;28;20128;-89
2022/03/18 04:37:40;;;;;;;22.73;6.53;;;5.50;99.90;;;;;;5036328;28;20704;-88
2022/03/18 04:40:12;;;;;;;18.05;6.30;;;5.40;99.90;;;;;;5036678;28;20055;-88
2022/03/18 04:42:41;;;;;;;22.27;7.57;;;5.40;99.90;;;;;;5036343;28;20139;-89
2022/03/18 04:45:08;;;;;;;21.35;5.95;;;5.40;99.90;;;;;;5036454;28;20045;-86
2022/03/18 04:47:35;;;;;;;17.00;5.70;;;5.40;99.90;;;;;;5036744;28;20073;-88
2022/03/18 04:50:04;;;;;;;17.80;5.90;;;5.50;99.90;;;;;;5053624;28;20048;-88
2022/03/18 04:52:31;;;;;;;21.23;6.65;;;5.40;99.90;;;;;;5036072;28;20140;-86
2022/03/18 04:54:58;;;;;;;18.17;5.85;;;5.50;99.90;;;;;;5053661;28;20052;-88
2022/03/18 04:57:25;;;;;;;19.00;6.50;;;5.50;99.90;;;;;;5035965;28;20412;-88
2022/03/18 04:59:56;;;;;;;25.80;7.32;;;5.40;99.90;;;;;;5036641;28;20140;-87
2022/03/18 05:02:24;;;;;;;23.55;6.07;;;5.50;99.90;;;;;;5053292;28;20543;-88
2022/03/18 05:04:53;;;;;;;16.88;5.85;;;5.50;99.90;;;;;;5035889;28;20081;-88
2022/03/18 05:07:20;;;;;;;22.25;7.43;;;5.50;99.90;;;;;;5035809;28;20144;-89
2022/03/18 05:09:48;;;;;;;21.10;6.90;;;5.60;99.90;;;;;;5036001;28;20457;-88
2022/03/18 05:12:17;;;;;;;22.02;6.43;;;5.60;99.90;;;;;;5053407;28;20051;-89
2022/03/18 05:14:50;;;;;;;20.30;7.13;;;5.60;99.90;;;;;;5053150;28;20044;-88
2022/03/18 05:17:17;;;;;;;22.08;6.78;;;5.50;99.90;;;;;;5035607;28;20057;-88
2022/03/18 05:19:44;;;;;;;22.50;6.35;;;5.60;99.90;;;;;;5053406;28;20128;-88
2022/03/18 05:22:11;;;;;;;24.70;7.93;;;5.50;99.90;;;;;;5035661;28;20497;-88
2022/03/18 05:24:37;;;;;;;19.10;5.70;;;5.50;99.90;;;;;;5035579;28;20045;-88
2022/03/18 05:27:04;;;;;;;17.45;6.15;;;5.50;99.90;;;;;;5035405;28;20047;-88
2022/03/18 05:29:32;;;;;;;19.50;6.00;;;5.50;99.90;;;;;;5053568;28;20448;-88
2022/03/18 05:32:00;;;;;;;20.20;5.97;;;5.60;99.90;;;;;;5039067;28;20168;-88
2022/03/18 05:34:28;;;;;;;24.27;5.88;;;5.50;99.90;;;;;;5036110;28;20527;-88
2022/03/18 05:36:55;;;;;;;26.58;6.32;;;5.50;99.90;;;;;;5035333;28;20045;-88
2022/03/18 05:39:22;;;;;;;19.73;5.50;;;5.40;99.90;;;;;;5035206;28;20485;-88
2022/03/18 05:41:49;;;;;;;18.65;5.38;;;5.50;99.90;;;;;;5052827;28;20087;-88
2022/03/18 05:44:16;;;;;;;31.58;5.70;;;5.40;99.90;;;;;;5053280;28;20060;-87
2022/03/18 05:46:44;;;;;;;19.73;5.18;;;5.50;99.90;;;;;;5036138;28;20060;-88
2022/03/18 05:49:12;;;;;;;18.45;5.07;;;5.50;99.90;;;;;;5052385;28;20055;-88
2022/03/18 05:51:39;;;;;;;16.77;4.70;;;5.40;99.90;;;;;;5035382;28;20084;-88
2022/03/18 05:54:05;;;;;;;27.63;5.38;;;5.40;99.90;;;;;;5035505;28;20049;-87
2022/03/18 05:59:19;;;;;;;20.70;5.32;;;5.30;99.90;;;;;;5052860;28;20059;-88
2022/03/18 06:01:47;;;;;;;21.15;4.47;;;5.40;99.90;;;;;;5035552;28;20053;-88
2022/03/18 06:04:14;;;;;;;17.13;4.88;;;5.30;99.90;;;;;;5035476;28;20045;-87
2022/03/18 06:06:43;;;;;;;24.35;6.07;;;5.20;99.90;;;;;;5052848;28;20057;-87
2022/03/18 06:11:56;;;;;;;14.35;5.18;;;5.20;99.90;;;;;;5053136;28;20110;-88
2022/03/18 06:14:26;;;;;;;21.77;6.05;;;5.20;99.90;;;;;;5035367;28;20489;-88
2022/03/18 06:16:55;;;;;;;19.75;7.20;;;5.30;99.90;;;;;;5052819;28;20067;-88
2022/03/18 06:19:24;;;;;;;31.10;11.30;;;5.20;99.90;;;;;;5035460;28;20132;-88
2022/03/18 06:21:51;;;;;;;24.83;7.22;;;5.10;99.90;;;;;;5035223;28;20045;-88
2022/03/18 06:24:20;;;;;;;37.85;16.55;;;5.20;99.90;;;;;;5035391;28;20049;-88
2022/03/18 06:26:48;;;;;;;26.15;10.13;;;5.10;99.90;;;;;;5034938;28;20052;-88
2022/03/18 06:29:15;;;;;;;34.33;9.88;;;5.20;99.90;;;;;;5035170;28;20132;-87
2022/03/18 06:31:42;;;;;;;17.33;9.50;;;5.20;99.90;;;;;;5052172;28;20134;-88
2022/03/18 06:34:11;;;;;;;20.48;7.22;;;5.20;99.90;;;;;;5052448;28;20095;-87
2022/03/18 06:36:39;;;;;;;23.58;8.20;;;5.20;99.90;;;;;;5052350;28;20116;-88
2022/03/18 06:39:07;;;;;;;22.05;8.55;;;5.20;99.90;;;;;;5035108;28;20056;-88
2022/03/18 06:41:35;;;;;;;25.25;9.18;;;5.20;99.90;;;;;;5052027;28;20051;-88
2022/03/18 06:44:02;;;;;;;19.10;7.18;;;5.30;99.90;;;;;;5035592;28;20053;-88
2022/03/18 06:46:29;;;;;;;31.30;20.40;;;5.30;99.90;;;;;;5039381;28;20121;-88
2022/03/18 06:48:56;;;;;;;26.98;10.75;;;5.40;99.90;;;;;;5035212;28;20048;-88
2022/03/18 06:51:23;;;;;;;34.92;11.52;;;5.40;99.90;;;;;;5052256;28;20449;-88
2022/03/18 06:53:49;;;;;;;48.72;8.30;;;5.40;99.90;;;;;;5034773;28;20049;-88
2022/03/18 06:56:16;;;;;;;29.65;8.30;;;5.50;99.90;;;;;;5052050;28;20059;-88
2022/03/18 06:58:43;;;;;;;32.35;8.32;;;5.60;99.90;;;;;;5052297;28;20052;-88
2022/03/18 07:01:11;;;;;;;24.73;6.53;;;5.70;99.90;;;;;;5038112;28;20080;-88
2022/03/18 07:03:38;;;;;;;24.02;11.30;;;5.80;99.90;;;;;;5038286;28;20056;-88
2022/03/18 07:06:08;;;;;;;20.50;6.97;;;5.70;99.90;;;;;;5038314;28;20060;-88
2022/03/18 07:08:35;;;;;;;25.30;8.02;;;5.70;99.90;;;;;;5038359;28;20059;-88
2022/03/18 07:11:03;;;;;;;17.27;5.65;;;5.70;99.90;;;;;;5037913;28;20040;-88
2022/03/18 07:13:30;;;;;;;22.60;4.90;;;5.70;99.90;;;;;;5055572;28;20084;-88
2022/03/18 07:17:54;;;;;;;22.25;5.13;;;5.60;99.90;;;;;;5038105;28;20057;-88
2022/03/18 07:18:44;;;;;;;18.90;6.18;;;5.60;99.90;;;;;;5055616;28;20044;-87
2022/03/18 07:21:13;;;;;;;30.83;6.07;;;5.60;99.90;;;;;;5038265;28;20139;-87
2022/03/18 07:23:40;;;;;;;23.65;6.03;;;5.60;99.90;;;;;;5055601;28;20489;-87
2022/03/18 07:26:07;;;;;;;20.60;5.80;;;5.60;99.90;;;;;;5037374;28;20139;-88
2022/03/18 07:28:34;;;;;;;27.77;6.68;;;5.60;99.90;;;;;;5037684;28;20390;-88
2022/03/18 07:31:01;;;;;;;20.05;6.65;;;5.60;99.90;;;;;;5037919;28;20053;-88
2022/03/18 07:33:27;;;;;;;23.23;5.53;;;5.50;99.90;;;;;;5054992;28;20049;-88
2022/03/18 07:35:54;;;;;;;24.73;7.78;;;5.60;99.90;;;;;;5037871;28;20510;-88
2022/03/18 07:38:21;;;;;;;23.63;5.60;;;5.60;99.90;;;;;;5055153;28;20421;-88
2022/03/18 07:40:52;;;;;;;27.92;5.78;;;5.60;99.90;;;;;;5037932;28;20090;-88
2022/03/18 07:43:19;;;;;;;20.05;5.38;;;5.60;99.90;;;;;;5037418;28;20049;-88
2022/03/18 07:45:45;;;;;;;17.98;5.85;;;5.60;99.90;;;;;;5055038;28;20137;-87
2022/03/18 07:48:12;;;;;;;23.20;5.38;;;5.50;99.90;;;;;;5037206;28;20049;-88
2022/03/18 07:50:39;;;;;;;17.48;4.65;;;5.40;99.90;;;;;;5055014;28;20175;-88
2022/03/18 07:53:08;;;;;;;20.55;4.65;;;5.40;99.90;;;;;;5037641;28;20049;-88
2022/03/18 07:55:37;;;;;;;24.30;4.80;;;5.40;99.90;;;;;;5036880;28;20131;-88
2022/03/18 07:58:06;;;;;;;21.85;6.35;;;5.50;99.90;;;;;;5037417;28;20063;-88
2022/03/18 08:00:34;;;;;;;19.27;6.40;;;5.50;99.90;;;;;;5040415;28;20064;-87
2022/03/18 08:03:02;;;;;;;21.08;6.07;;;5.40;99.90;;;;;;5037488;28;20417;-88
2022/03/18 08:05:30;;;;;;;22.15;5.28;;;5.40;99.90;;;;;;5037249;28;20080;-88
2022/03/18 08:07:57;;;;;;;24.73;5.30;;;5.50;99.90;;;;;;5036925;28;20051;-88
2022/03/18 08:10:25;;;;;;;20.55;6.03;;;5.60;99.90;;;;;;5054082;28;20053;-88
2022/03/18 08:12:52;;;;;;;35.85;6.43;;;5.60;99.90;;;;;;5036820;28;20053;-88
2022/03/18 08:15:20;;;;;;;25.02;7.10;;;5.60;99.90;;;;;;5036908;28;20059;-88
2022/03/18 08:17:52;;;;;;;24.67;5.95;;;5.60;99.90;;;;;;5036727;28;20127;-88
2022/03/18 08:20:20;;;;;;;29.60;6.05;;;5.60;99.90;;;;;;5054099;28;20076;-87
2022/03/18 08:22:49;;;;;;;29.88;9.90;;;5.60;99.90;;;;;;5037324;28;20049;-88
2022/03/18 08:25:16;;;;;;;28.15;10.35;;;5.50;99.90;;;;;;5036516;28;20071;-88
2022/03/18 08:27:43;;;;;;;24.27;8.82;;;5.60;99.90;;;;;;5054467;28;20542;-88
2022/03/18 08:30:11;;;;;;;31.27;11.68;;;5.60;99.90;;;;;;5036681;28;20055;-88
2022/03/18 08:32:38;;;;;;;25.13;7.50;;;5.60;99.90;;;;;;5036449;28;20048;-88
2022/03/18 08:35:07;;;;;;;16.38;6.93;;;5.70;99.90;;;;;;5054024;28;20056;-88
2022/03/18 08:40:20;;;;;;;22.10;6.00;;;5.90;99.90;;;;;;5053756;28;20122;-88
2022/03/18 08:42:47;;;;;;;26.85;6.18;;;5.90;99.90;;;;;;5036322;28;20041;-88
2022/03/18 08:45:14;;;;;;;20.75;7.10;;;5.90;99.90;;;;;;5053917;28;20052;-88
2022/03/18 08:47:40;;;;;;;31.40;7.47;;;5.70;99.90;;;;;;5036180;28;20053;-88
2022/03/18 08:50:08;;;;;;;33.85;7.78;;;5.80;99.90;;;;;;5036059;28;20045;-88
2022/03/18 08:52:34;;;;;;;33.65;8.02;;;5.70;99.90;;;;;;5036115;28;20087;-88
2022/03/18 08:55:04;;;;;;;27.95;7.70;;;5.70;99.90;;;;;;5053553;28;20088;-88
2022/03/18 08:57:33;;;;;;;23.10;7.75;;;5.80;99.90;;;;;;5036320;28;20045;-88
2022/03/18 09:00:00;;;;;;;23.92;8.32;;;5.80;99.90;;;;;;5035875;28;20064;-88
2022/03/18 09:02:27;;;;;;;29.83;8.52;;;5.90;99.90;;;;;;5035672;28;20079;-87
2022/03/18 09:04:54;;;;;;;17.85;7.22;;;5.90;99.90;;;;;;5035957;28;20481;-88
2022/03/18 09:07:21;;;;;;;27.48;7.50;;;6.20;99.90;;;;;;5035616;28;20045;-88
2022/03/18 09:09:47;;;;;;;26.17;8.15;;;6.20;99.90;;;;;;5053332;28;20052;-88
2022/03/18 09:12:18;;;;;;;40.75;8.80;;;6.00;99.90;;;;;;5035746;28;20131;-88
2022/03/18 09:14:46;;;;;;;29.02;8.73;;;5.90;99.90;;;;;;5038895;28;20053;-88
2022/03/18 09:17:13;;;;;;;26.85;9.15;;;5.90;99.90;;;;;;5037004;28;20045;-88
2022/03/18 09:19:40;;;;;;;41.35;10.50;;;5.90;99.90;;;;;;5035618;28;20057;-88
2022/03/18 09:22:10;;;;;;;29.58;9.02;;;6.00;99.90;;;;;;5035343;28;20048;-88
2022/03/18 09:24:37;;;;;;;49.30;9.70;;;6.10;99.90;;;;;;5035313;28;20072;-87
2022/03/18 09:27:05;;;;;;;29.27;9.98;;;6.00;99.90;;;;;;5034979;28;20102;-88
2022/03/18 09:29:32;;;;;;;38.45;10.98;;;6.00;99.90;;;;;;5035752;28;20049;-87
2022/03/18 09:31:59;;;;;;;36.22;10.38;;;6.00;99.90;;;;;;5035522;28;20047;-87
2022/03/18 09:34:26;;;;;;;30.85;9.25;;;6.10;99.90;;;;;;5035572;28;20084;-87
2022/03/18 09:36:54;;;;;;;36.00;10.52;;;6.20;99.90;;;;;;5035542;28;20045;-88
2022/03/18 09:39:22;;;;;;;41.70;19.38;;;6.40;99.90;;;;;;5053206;28;20405;-88
2022/03/18 09:41:50;;;;;;;49.63;13.43;;;6.50;99.90;;;;;;5035369;28;20073;-88
2022/03/18 09:44:17;;;;;;;25.77;9.43;;;6.70;99.90;;;;;;5035325;28;20049;-88
2022/03/18 09:46:47;;;;;;;31.60;9.75;;;6.90;99.90;;;;;;5035440;28;20045;-88
2022/03/18 09:49:17;;;;;;;37.88;11.88;;;6.90;99.90;;;;;;5035840;28;20104;-88
2022/03/18 09:51:47;;;;;;;30.60;10.70;;;7.10;99.90;;;;;;5053256;28;20060;-88
2022/03/18 09:54:16;;;;;;;36.17;10.68;;;7.40;99.90;;;;;;5035626;28;20550;-88
2022/03/18 09:56:46;;;;;;;51.83;21.83;;;7.40;99.90;;;;;;5035460;28;20052;-88
2022/03/18 09:59:14;;;;;;;38.97;11.10;;;7.60;99.90;;;;;;5035276;28;20535;-88
2022/03/18 10:01:42;;;;;;;31.25;9.70;;;7.50;99.90;;;;;;5035513;28;20052;-88
2022/03/18 10:04:11;;;;;;;30.60;9.40;;;7.80;99.90;;;;;;5035493;28;20539;-88
2022/03/18 10:06:42;;;;;;;30.13;9.65;;;7.80;99.90;;;;;;5035457;28;20079;-87
2022/03/18 10:09:10;;;;;;;36.58;9.65;;;7.70;99.90;;;;;;5052900;28;20485;-87
2022/03/18 10:11:38;;;;;;;31.30;9.45;;;7.60;99.90;;;;;;5035487;28;20141;-87
2022/03/18 10:14:07;;;;;;;45.33;9.82;;;7.50;99.90;;;;;;5035342;28;20508;-88
2022/03/18 10:16:45;;;;;;;65.72;11.63;;;7.50;99.90;;;;;;5052828;28;20059;-88
2022/03/18 10:19:21;;;;;;;28.83;8.30;;;7.50;99.90;;;;;;5035429;28;20049;-88
2022/03/18 10:22:01;;;;;;;30.08;9.73;;;7.80;99.90;;;;;;5035397;28;20045;-88
2022/03/18 10:24:30;;;;;;;30.27;8.77;;;7.80;99.90;;;;;;5035286;28;20059;-88
2022/03/18 10:27:20;;;;;;;27.45;9.05;;;7.80;99.90;;;;;;5035327;28;20489;-88
2022/03/18 10:29:54;;;;;;;37.67;9.63;;;7.80;99.90;;;;;;5038080;28;20518;-88
2022/03/18 10:32:23;;;;;;;26.50;8.75;;;8.00;99.90;;;;;;5035661;28;20083;-87
2022/03/18 10:37:40;;;;;;;31.98;9.25;;;7.80;99.90;;;;;;5056526;28;20048;-88
2022/03/18 10:40:08;;;;;;;41.80;10.20;;;7.70;99.90;;;;;;5038665;28;20053;-88
2022/03/18 10:42:34;;;;;;;31.38;8.80;;;7.60;99.90;;;;;;5056368;28;20049;-88
2022/03/18 10:45:03;;;;;;;28.98;8.68;;;7.90;99.90;;;;;;5039160;28;20495;-88
2022/03/18 10:47:41;;;;;;;29.35;10.15;;;7.80;99.90;;;;;;5038727;28;20139;-88
2022/03/18 10:50:16;;;;;;;43.55;14.80;;;8.00;99.90;;;;;;5056423;28;20127;-87
2022/03/18 10:52:49;;;;;;;76.28;36.33;;;7.90;99.90;;;;;;5038467;28;20136;-88
2022/03/18 10:55:26;;;;;;;45.20;11.02;;;7.60;99.90;;;;;;5038678;28;20091;-87
2022/03/18 10:57:59;;;;;;;56.28;28.90;;;7.50;99.90;;;;;;5038023;28;20431;-87
2022/03/18 11:00:36;;;;;;;34.63;10.48;;;7.40;99.90;;;;;;5038137;28;20135;-88
2022/03/18 11:03:04;;;;;;;32.55;11.63;;;7.30;99.90;;;;;;5038153;28;20171;-88
2022/03/18 11:05:34;;;;;;;44.47;17.88;;;7.30;99.90;;;;;;5038218;28;20048;-88
2022/03/18 11:08:03;;;;;;;56.22;20.65;;;7.40;99.90;;;;;;5055815;28;20076;-87
2022/03/18 11:13:21;;;;;;;30.13;10.93;;;7.20;99.90;;;;;;5055575;28;20499;-88
2022/03/18 11:15:49;;;;;;;59.70;29.92;;;7.50;99.90;;;;;;5037633;28;20145;-87
2022/03/18 11:18:16;;;;;;;37.17;13.32;;;7.50;99.90;;;;;;5055405;28;20045;-87
2022/03/18 11:20:44;;;;;;;39.17;17.70;;;7.70;99.90;;;;;;5037780;28;20045;-87
2022/03/18 11:23:16;;;;;;;33.13;12.45;;;7.70;99.90;;;;;;5055496;28;20045;-87
2022/03/18 11:25:48;;;;;;;25.45;11.02;;;7.60;99.90;;;;;;5045556;28;20136;-87
2022/03/18 11:28:17;;;;;;;46.97;18.35;;;7.70;99.90;;;;;;5026520;28;20080;-87
2022/03/18 11:30:47;;;;;;;61.67;25.15;;;7.90;99.90;;;;;;5039506;28;20148;-86
2022/03/18 11:33:16;;;;;;;35.03;16.50;;;7.90;99.90;;;;;;5035203;28;20519;-87
2022/03/18 11:35:49;;;;;;;29.10;11.15;;;7.90;99.90;;;;;;5035179;28;20057;-87
2022/03/18 11:38:25;;;;;;;35.83;13.37;;;8.00;99.90;;;;;;5035236;28;20487;-87
2022/03/18 11:41:01;;;;;;;42.42;12.43;;;8.20;99.90;;;;;;5034897;28;20288;-87
2022/03/18 11:43:43;;;;;;;24.67;10.27;;;8.20;99.90;;;;;;5024286;28;20107;-87
2022/03/18 11:46:16;;;;;;;27.13;9.68;;;8.20;99.90;;;;;;5016744;28;20409;-87
2022/03/18 11:48:54;;;;;;;28.42;9.88;;;8.00;99.90;;;;;;5017856;28;20136;-87
2022/03/18 11:51:29;;;;;;;27.65;10.25;;;7.90;99.90;;;;;;5034690;28;20053;-87
2022/03/18 11:53:59;;;;;;;27.27;10.05;;;8.00;99.90;;;;;;5034796;28;20080;-87
2022/03/18 11:56:46;;;;;;;25.35;8.93;;;8.20;99.90;;;;;;5017422;28;20057;-87
2022/03/18 11:59:25;;;;;;;20.85;8.60;;;8.30;99.90;;;;;;5034484;28;20055;-87
2022/03/18 12:01:55;;;;;;;32.10;10.02;;;8.60;99.90;;;;;;5017336;28;20050;-87
2022/03/18 12:04:41;;;;;;;31.20;10.77;;;8.50;99.90;;;;;;5034628;28;20049;-87
2022/03/18 12:07:16;;;;;;;21.13;9.25;;;8.20;99.90;;;;;;5017614;28;20139;-87
2022/03/18 12:10:05;;;;;;;25.23;9.32;;;8.20;99.90;;;;;;5026603;28;20499;-87
2022/03/18 12:12:34;;;;;;;42.83;14.20;;;8.30;99.90;;;;;;5047931;28;20091;-87
2022/03/18 12:15:07;;;;;;;34.08;11.70;;;8.40;99.90;;;;;;5028114;28;20400;-87
2022/03/18 12:17:42;;;;;;;21.85;8.95;;;8.50;99.90;;;;;;5034364;28;20090;-87
2022/03/18 12:20:10;;;;;;;29.85;11.55;;;8.70;99.90;;;;;;5016879;28;20497;-87
2022/03/18 12:22:39;;;;;;;26.98;10.68;;;8.70;99.90;;;;;;5016869;28;20050;-87
2022/03/18 12:25:08;;;;;;;28.67;11.20;;;8.60;99.90;;;;;;5016492;28;20123;-87
2022/03/18 12:27:36;;;;;;;29.85;10.25;;;8.60;99.90;;;;;;5034180;28;20501;-86
2022/03/18 12:30:05;;;;;;;35.55;11.02;;;8.80;99.90;;;;;;5016923;28;20558;-88
2022/03/18 12:32:34;;;;;;;27.88;10.27;;;8.90;99.90;;;;;;5016693;28;20111;-87
2022/03/18 12:35:04;;;;;;;30.02;11.60;;;8.80;99.90;;;;;;5016489;28;20148;-87
2022/03/18 12:37:32;;;;;;;28.52;11.25;;;8.70;99.90;;;;;;5016780;28;20049;-87
2022/03/18 12:40:05;;;;;;;20.75;10.90;;;8.90;99.90;;;;;;5016267;28;20053;-87
2022/03/18 12:42:44;;;;;;;31.40;11.13;;;8.90;99.90;;;;;;5016392;28;20136;-87
2022/03/18 12:45:11;;;;;;;32.25;13.55;;;8.90;99.90;;;;;;5016480;28;20166;-87
2022/03/18 12:47:38;;;;;;;25.17;10.85;;;8.80;99.90;;;;;;5016577;28;20056;-87
2022/03/18 12:50:05;;;;;;;31.27;12.98;;;9.00;99.90;;;;;;5016366;28;20045;-87
2022/03/18 12:52:32;;;;;;;36.85;15.75;;;9.00;99.90;;;;;;5016359;28;20132;-87
2022/03/18 12:55:12;;;;;;;35.97;14.57;;;9.10;99.90;;;;;;5017127;28;20063;-88
2022/03/18 12:57:41;;;;;;;40.67;13.73;;;9.10;99.90;;;;;;5021695;28;20049;-87
2022/03/18 13:00:11;;;;;;;33.58;13.48;;;9.00;99.90;;;;;;5016505;28;20478;-86
2022/03/18 13:02:59;;;;;;;25.48;13.15;;;8.90;99.90;;;;;;5033619;28;20057;-87
2022/03/18 13:05:27;;;;;;;41.83;20.45;;;9.10;99.90;;;;;;5016419;28;20053;-88
2022/03/18 13:08:04;;;;;;;34.63;17.27;;;8.90;99.90;;;;;;5016109;28;20057;-87
2022/03/18 13:10:31;;;;;;;36.25;15.88;;;8.90;99.90;;;;;;5033457;28;20071;-87
2022/03/18 13:13:12;;;;;;;36.22;14.63;;;8.80;99.90;;;;;;5016508;28;20054;-87
2022/03/18 13:15:47;;;;;;;33.95;14.90;;;9.00;99.90;;;;;;5016385;28;20125;-87
2022/03/18 13:18:16;;;;;;;33.47;14.20;;;9.30;99.90;;;;;;5033672;28;20123;-87